Valley Peak, Santa Cruz Island Reserve, California Weather observations

Data are for 10 minute period ending at time listed.
 Day   Time   Solar   Ave.   Ave.  Ave.  Vector  Max.   Baro.   Total    
  of    of     Rad.   Air    Rel.  Wind   Wind   Wind  Press.  Precip.   
Year   Day            Temp.  Hum.  Speed  Dir.   Gust                    
2017   (PST)  Kw/m2    F      %     mph   deg.    mph    mb.     in.     
-------------------------------------------------------------------------
 112    7:30   0.34   73.7    33    1.4    99     2.8   963.1    0.00 
 112    7:40   0.41   74.6    33    1.9   115     3.4   963.0    0.00 
 112    7:50   0.44   75.2    33    2.0   138     3.6   963.0    0.00 
 112    8:00   0.49   73.1    36    3.5   179     5.3   963.0    0.00 
 112    8:10   0.53   72.3    34    3.8   189     5.1   963.1    0.00 
 112    8:20   0.57   72.9    34    2.8   194     4.5   963.3    0.00 
 112    8:30   0.57   74.1    35    2.5   195     4.6   963.4    0.00 
 112    8:40   0.62   74.7    36    3.5   189     7.0   963.5    0.00 
 112    8:50   0.66   75.0    33    4.2   183     6.3   963.5    0.00 
 112    9:00   0.69   76.1    28    4.3   172     6.4   963.6    0.00 
 112    9:10   0.72   77.3    29    3.5   152     7.1   963.7    0.00 
 112    9:20   0.74   78.8    27    3.3   159     6.7   963.8    0.00 
 112    9:30   0.77   79.2    26    3.4   166     6.8   963.9    0.00 
 112    9:40   0.80   79.4    25    2.6   163     6.0   964.0    0.00 
 112    9:50   0.82   80.6    26    2.2   159     6.1   964.1    0.00 
 112   10:00   0.84   80.7    28    1.8   176     5.0   964.2    0.00 
 112   10:10   0.86   80.9    26    2.4   165     5.2   964.3    0.00 
 112   10:20   0.88   82.6    33    2.2    73     5.2   964.4    0.00 
 112   10:30   0.90   82.1    35    2.9    58     5.8   964.3    0.00 
 112   10:40   0.92   82.1    33    2.4    88     6.6   964.3    0.00 
 112   10:50   0.93   83.5    26    2.6   139     6.4   964.2    0.00 
 112   11:00   0.94   84.3    26    2.8   147     6.3   964.2    0.00 
 112   11:10   0.96   84.4    30    2.3    83     5.5   964.2    0.00 
 112   11:20   0.97   85.5    27    1.9   122     5.2   964.1    0.00 
 112   11:30   0.95   85.8    25    1.7   162     4.5   964.0    0.00 
 112   11:40   0.91   85.7    25    2.3   145     5.3   963.9    0.00 
 112   11:50   0.96   86.5    26    1.8   123     5.6   963.9    0.00 
 112   12:00   0.95   86.5    24    2.3   152     6.9   963.9    0.00 
 112   12:10   0.95   86.0    26    2.0   124     6.5   963.8    0.00 
 112   12:20   0.92   86.2    30    2.4    68     4.3   963.8    0.00 
 112   12:30   0.94   85.7    31    2.4    62     4.2   963.7    0.00 
 112   12:40   0.94   85.5    30    2.2    43     4.5   963.7    0.00 
 112   12:50   0.93   84.1    30    5.4    37     8.8   963.7    0.00 
 112   13:00   0.90   82.8    29    6.6    38     9.8   963.7    0.00 
 112   13:10   0.89   82.2    27    7.9    38    12.1   963.7    0.00 
 112   13:20   0.89   81.3    25    7.4    36    11.9   963.7    0.00 
 112   13:30   0.89   81.7    26    7.4    37    11.0   963.6    0.00 
 112   13:40   0.88   80.5    26    6.2    24     9.7   963.6    0.00 
 112   13:50   0.86   80.8    28    4.1    27     7.9   963.6    0.00 
 112   14:00   0.85   82.1    28    4.6    37     7.5   963.5    0.00 
 112   14:10   0.82   82.0    30    4.7    37     7.0   963.4    0.00 
 112   14:20   0.80   81.9    30    5.0    31     7.0   963.4    0.00 
 112   14:30   0.78   82.4    29    5.0    36     6.9   963.2    0.00 
 112   14:40   0.75   81.7    30    4.0    35     6.6   963.2    0.00 
 112   14:50   0.72   82.4    31    5.0    32     8.4   963.1    0.00 
 112   15:00   0.70   81.0    32    4.3    24     6.6   963.1    0.00 
 112   15:10   0.62   80.2    33    3.0     9     6.1   963.0    0.00 
 112   15:20   0.58   79.5    34    5.6    29     8.6   963.0    0.00 
 112   15:30   0.61   79.8    35    3.4    12     5.3   962.9    0.00 
 112   15:40   0.58   80.0    35    5.1    29     7.1   962.8    0.00 
 112   15:50   0.54   78.8    35    4.8    18     7.6   962.8    0.00 
 112   16:00   0.50   79.3    34    4.6    10     9.2   962.6    0.00 
 112   16:10   0.46   78.5    35    5.9    20     8.3   962.6    0.00 
 112   16:20   0.44   76.9    36    6.7    19     9.8   962.5    0.00 
 112   16:30   0.41   76.7    36    7.0    25     9.2   962.5    0.00 
 112   16:40   0.37   76.0    36    8.0    21    10.9   962.5    0.00 
 112   16:50   0.26   74.4    37    8.8    26    11.5   962.4    0.00 
 112   17:00   0.23   73.0    38    8.9    20    11.8   962.2    0.00 
 112   17:10   0.12   70.8    39    9.0    16    12.0   962.0    0.00 
 112   17:20   0.12   68.9    40   10.1    17    12.2   961.7    0.00 
 112   17:30   0.10   69.2    38   10.7    19    14.8   961.5    0.00 
 112   17:40   0.11   68.6    38   10.8    18    12.9   961.4    0.00 
 112   17:50   0.08   67.9    39   10.8    18    13.1   961.3    0.00 
 112   18:00   0.08   67.1    39   10.0    13    12.6   961.2    0.00 
 112   18:10   0.06   68.1    34    9.6    10    11.6   961.2    0.00 
 112   18:20   0.04   67.4    36    8.9    15    11.0   961.1    0.00 
 112   18:30   0.01   67.2    33    8.4    24    10.9   961.1    0.00 
 112   18:40   0.00   67.2    31    7.1    30     9.0   961.1    0.00 
 112   18:50   0.00   67.5    29    7.2    42    11.7   961.0    0.00 
 112   19:00   0.00   67.1    29    6.5    43     9.3   961.0    0.00 
 112   19:10   0.00   68.0    25    5.1     9    10.7   961.0    0.00 
 112   19:20   0.00   70.0    21    5.7   337    10.2   961.0    0.00 
 112   19:30   0.00   70.8    21    8.3    34    15.8   961.0    0.00 
 112   19:40   0.00   67.9    26    7.8    30    13.4   961.2    0.00 
 112   19:50   0.00   67.8    26    7.9    24    11.6   961.1    0.00 
 112   20:00   0.00   68.6    25    7.0    27    10.7   961.2    0.00 
 112   20:10   0.00   69.5    22    5.9    10     9.6   961.2    0.00 
 112   20:20   0.00   71.8    18    7.0   359    11.3   961.3    0.00 
 112   20:30   0.00   70.1    20   11.2    10    15.3   961.3    0.00 
 112   20:40   0.00   69.3    25    8.9    21    12.4   961.3    0.00 
 112   20:50   0.00   67.4    28    7.6    33    10.4   961.3    0.00 
 112   21:00   0.00   67.4    26    7.1    23    11.6   961.3    0.00 
 112   21:10   0.00   68.4    25    6.4    22    10.5   961.4    0.00 
 112   21:20   0.00   68.5    26    4.2    11     8.6   961.3    0.00 
 112   21:30   0.00   68.4    30    3.1   272     8.0   961.3    0.00 
 112   21:40   0.00   68.0    28    4.0   101     7.9   961.3    0.00 
 112   21:50   0.00   68.0    29    2.5    60     4.9   961.3    0.00 
 112   22:00   0.00   69.1    31    8.6   351    16.8   961.3    0.00 
 112   22:10   0.00   69.9    33    9.1   350    16.4   961.3    0.00 
 112   22:20   0.00   68.6    36   10.7    21    17.4   961.3    0.00 
 112   22:30   0.00   67.8    40   13.2    33    22.0   961.2    0.00 
 112   22:40   0.00   66.3    45   13.1    46    18.0   961.3    0.00 
 112   22:50   0.00   65.4    47   10.0    54    19.7   961.3    0.00 
 112   23:00   0.00   64.7    52    9.7    23    19.1   961.3    0.00 
 112   23:10   0.00   63.8    52    8.0   344    13.5   961.3    0.00 
 112   23:20   0.00   67.5    44    8.9   342    15.7   961.2    0.00 
 112   23:30   0.00   66.1    46   11.7    12    17.0   961.1    0.00 
 112   23:40   0.00   67.5    42   14.8     9    19.4   960.9    0.00 
 112   23:50   0.00   66.2    45   12.7    12    17.2   960.9    0.00 
 113    0:00   0.00   66.0    46    6.8     0    11.8   961.1    0.00 
 113    0:10   0.00   65.7    48    7.8     8    11.7   961.1    0.00 
 113    0:20   0.00   64.6    51    8.5   359    14.6   960.9    0.00 
 113    0:30   0.00   66.2    48   10.8   337    22.0   960.8    0.00 
 113    0:40   0.00   66.8    45   11.0   323    15.5   960.6    0.00 
 113    0:50   0.00   66.7    44   10.7   322    14.6   960.4    0.00 
 113    1:00   0.00   66.8    43    9.8   338    13.6   960.3    0.00 
 113    1:10   0.00   65.8    44    9.6     5    14.8   960.2    0.00 
 113    1:20   0.00   63.7    50   15.8    29    24.3   960.0    0.00 
 113    1:30   0.00   62.6    52   15.9     9    22.0   960.0    0.00 
 113    1:40   0.00   62.5    51   17.6    11    22.1   959.9    0.00 
 113    1:50   0.00   60.6    58   17.2    22    24.1   959.9    0.00 
 113    2:00   0.00   57.3    68   17.5    22    21.4   959.8    0.00 
 113    2:10   0.00   55.8    73   18.0    28    22.0   959.8    0.00 
 113    2:20   0.00   55.3    75   17.5    23    20.5   959.8    0.00 
 113    2:30   0.00   56.0    71   15.3    18    17.9   959.9    0.00 
 113    2:40   0.00   57.6    65   15.7    12    18.5   959.9    0.00 
 113    2:50   0.00   56.5    70   13.1    14    15.7   959.9    0.00 
 113    3:00   0.00   58.3    64   11.6     6    13.7   959.9    0.00 
 113    3:10   0.00   57.8    65    8.3   353    12.1   960.1    0.00 
 113    3:20   0.00   57.5    67    5.0     5     7.9   960.1    0.00 
 113    3:30   0.00   56.0    70    3.2     1     6.6   960.1    0.00 
 113    3:40   0.00   57.4    63    2.9   278     5.0   960.2    0.00 
 113    3:50   0.00   58.0    60    2.1   247     4.4   960.3    0.00 
 113    4:00   0.00   57.8    62    3.2   252     5.3   960.3    0.00 
 113    4:10   0.00   58.5    60    2.3   222     4.8   960.1    0.00 
 113    4:20   0.00   57.7    64    3.9    32     7.9   960.2    0.00 
 113    4:30   0.00   54.6    74    4.9    39     6.9   960.3    0.00 
 113    4:40   0.00   53.6    79    5.2    28     6.9   960.4    0.00 
 113    4:50   0.00   54.0    75    4.0    44     5.6   960.3    0.00 
 113    5:00   0.00   54.7    73    3.7    61     6.6   960.4    0.00 
 113    5:10   0.00   53.7    78    2.6    44     6.1   960.7    0.00 
 113    5:20   0.00   54.8    71    2.7   112     4.2   960.7    0.00 
 113    5:30   0.00   56.8    65    2.6    62     4.6   960.8    0.00 
 113    5:40   0.02   57.4    63    2.8   118     4.5   960.9    0.00 
 113    5:50   0.05   57.6    65    1.8    82     3.6   961.1    0.00 
 113    6:00   0.08   57.0    68    1.0   316     3.5   961.2    0.00 
 113    6:10   0.10   56.3    71    3.3    32     5.1   961.3    0.00 
 113    6:20   0.15   55.8    74    2.4    42     3.4   961.4    0.00 
 113    6:30   0.21   56.6    73    2.3    51     4.7   961.6    0.00 
 113    6:40   0.24   57.5    71    3.0    47     4.6   961.8    0.00 
 113    6:50   0.15   57.3    73    5.4    45     8.0   961.9    0.00 
 113    7:00   0.22   56.9    75    3.8    47     6.9   962.0    0.00 
 113    7:10   0.31   57.1    74    3.1    27     6.3   962.1    0.00 
 113    7:20   0.35   57.5    74    2.7    38     4.7   962.1    0.00 

Return to Valley Peak, Santa Cruz Island Reserve graphs page.


Western Regional Climate Center,wrcc@dri.edu